createdAt,value
2022-11-09T00:03:36.145Z,62.75
2022-11-09T00:08:41.705Z,62.08
2022-11-09T00:13:45.808Z,62.10
2022-11-09T00:18:48.699Z,61.88
2022-11-09T00:23:53.825Z,61.19
2022-11-09T00:28:56.682Z,60.87
2022-11-09T00:33:59.536Z,60.81
2022-11-09T00:39:03.719Z,60.96
2022-11-09T00:44:08.832Z,61.01
2022-11-09T00:49:11.763Z,60.69
2022-11-09T00:54:17.559Z,60.66
2022-11-09T00:59:20.430Z,60.75
2022-11-09T01:04:24.002Z,61.13
2022-11-09T01:09:30.285Z,60.91
2022-11-09T01:14:33.167Z,61.24
2022-11-09T01:19:38.822Z,60.99
2022-11-09T01:24:43.116Z,60.51
2022-11-09T01:29:45.876Z,61.05
2022-11-09T01:34:48.635Z,60.97
2022-11-09T01:39:52.726Z,60.57
2022-11-09T01:45:26.071Z,61.69
2022-11-09T01:50:36.128Z,61.52
2022-11-09T01:55:40.780Z,61.89
2022-11-09T02:00:48.460Z,62.14
2022-11-09T02:05:52.544Z,61.44
2022-11-09T02:11:05.610Z,61.55
2022-11-09T02:16:10.724Z,61.23
2022-11-09T02:21:15.119Z,61.19
2022-11-09T02:26:22.825Z,60.74
2022-11-09T02:31:32.184Z,60.99
2022-11-09T02:36:36.432Z,60.88
2022-11-09T02:41:45.770Z,62.16
2022-11-09T02:46:48.671Z,61.88
2022-11-09T02:51:52.966Z,62.00
2022-11-09T02:56:56.184Z,62.75
2022-11-09T03:01:59.098Z,62.26
2022-11-09T03:07:06.051Z,63.00
2022-11-09T03:12:23.167Z,62.43
2022-11-09T03:17:28.142Z,62.12
2022-11-09T03:22:32.335Z,63.06
2022-11-09T03:27:35.253Z,63.06
2022-11-09T03:32:38.832Z,63.16
2022-11-09T03:37:44.195Z,63.49
2022-11-09T03:42:48.143Z,64.04
2022-11-09T03:47:51.113Z,63.66
2022-11-09T03:52:55.278Z,64.05
2022-11-09T03:57:58.094Z,64.38
2022-11-09T04:03:01.035Z,65.04
2022-11-09T04:08:05.767Z,65.19
2022-11-09T04:13:09.008Z,64.35
2022-11-09T04:18:15.188Z,64.40
2022-11-09T04:23:20.330Z,64.64
2022-11-09T04:28:23.537Z,64.89
2022-11-09T04:33:26.344Z,65.22
2022-11-09T04:38:30.499Z,65.03
2022-11-09T04:43:33.337Z,65.13
2022-11-09T04:48:36.202Z,65.30
2022-11-09T04:53:40.552Z,65.98
2022-11-09T04:58:43.430Z,65.83
2022-11-09T05:03:46.275Z,66.20
2022-11-09T05:08:50.700Z,65.89
2022-11-09T05:13:53.975Z,65.86
2022-11-09T05:18:56.985Z,66.49
2022-11-09T05:24:01.475Z,66.36
2022-11-09T05:29:06.238Z,66.86
2022-11-09T05:34:13.374Z,67.43
2022-11-09T05:39:17.582Z,67.24
2022-11-09T05:44:20.364Z,66.93
2022-11-09T05:49:23.147Z,67.00
2022-11-09T05:54:27.313Z,67.88
2022-11-09T05:59:30.099Z,67.64
2022-11-09T06:04:32.877Z,66.92
2022-11-09T06:09:37.196Z,67.67
2022-11-09T06:14:40.008Z,67.62
2022-11-09T06:19:42.784Z,66.96
2022-11-09T06:24:46.965Z,66.78
2022-11-09T06:29:49.785Z,67.25
2022-11-09T06:34:52.608Z,67.51
2022-11-09T06:39:56.748Z,68.16
2022-11-09T06:44:59.527Z,67.14
2022-11-09T06:50:02.344Z,67.15
2022-11-09T06:55:08.250Z,67.65
2022-11-09T07:00:12.528Z,67.88
2022-11-09T07:05:15.492Z,68.26
2022-11-09T07:10:20.070Z,67.21
2022-11-09T07:15:22.860Z,67.52
2022-11-09T07:20:26.147Z,67.34
2022-11-09T07:25:30.273Z,67.25
2022-11-09T07:30:33.125Z,66.81
2022-11-09T07:35:35.964Z,66.40
2022-11-09T07:40:40.760Z,65.98
2022-11-09T07:45:43.671Z,66.21
2022-11-09T07:50:46.609Z,66.82
2022-11-09T07:55:58.592Z,65.78
2022-11-09T08:01:01.391Z,65.68
2022-11-09T08:06:04.529Z,65.24
2022-11-09T08:11:08.783Z,65.17
2022-11-09T08:16:11.667Z,65.73
2022-11-09T08:21:14.451Z,64.99
2022-11-09T08:26:18.661Z,65.81
2022-11-09T08:31:21.435Z,64.28
2022-11-09T08:36:26.093Z,62.65
2022-11-09T08:41:30.288Z,63.86
2022-11-09T08:46:37.008Z,63.11
2022-11-09T08:51:42.794Z,63.38
2022-11-09T08:56:46.964Z,63.01
2022-11-09T09:01:49.902Z,63.50
2022-11-09T09:06:54.101Z,63.45
2022-11-09T09:11:58.372Z,63.19
2022-11-09T09:17:01.588Z,60.22
2022-11-09T09:22:04.751Z,62.02
2022-11-09T09:27:09.004Z,62.13
2022-11-09T09:32:11.845Z,62.39
2022-11-09T09:37:14.785Z,62.41
2022-11-09T09:42:23.850Z,61.68
2022-11-09T09:47:34.428Z,62.56
2022-11-09T09:52:43.263Z,62.67
2022-11-09T09:57:56.144Z,62.60
2022-11-09T10:02:59.036Z,62.98
2022-11-09T10:08:10.210Z,61.18
2022-11-09T10:13:41.892Z,60.68
2022-11-09T10:19:09.559Z,60.64
2022-11-09T10:24:26.113Z,59.88
2022-11-09T10:29:36.642Z,58.81
2022-11-09T10:34:45.080Z,58.47
2022-11-09T10:39:52.525Z,59.48
2022-11-09T10:45:22.947Z,61.45
2022-11-09T10:50:51.807Z,59.99
2022-11-09T10:56:20.889Z,59.34
2022-11-09T11:01:44.005Z,59.62
2022-11-09T11:07:20.486Z,60.51
2022-11-09T11:12:42.736Z,59.95
2022-11-09T11:18:13.844Z,58.11
2022-11-09T11:23:36.951Z,58.35
2022-11-09T11:29:02.719Z,59.84
2022-11-09T11:34:53.470Z,58.61
2022-11-09T11:40:09.898Z,56.58
2022-11-09T11:45:40.989Z,56.37
2022-11-09T11:51:10.387Z,55.75
2022-11-09T11:56:37.410Z,52.97
2022-11-09T12:02:26.070Z,52.95
2022-11-09T12:07:57.590Z,54.82
2022-11-09T12:13:39.724Z,55.42
2022-11-09T12:19:22.578Z,55.76
2022-11-09T12:24:57.315Z,53.63
2022-11-09T12:30:21.393Z,51.45
2022-11-09T12:35:47.588Z,52.86
2022-11-09T12:41:16.982Z,53.71
2022-11-09T12:46:44.230Z,51.37
2022-11-09T12:52:07.807Z,49.47
2022-11-09T12:57:33.247Z,50.10
2022-11-09T13:02:57.455Z,49.74
2022-11-09T13:08:24.675Z,50.10
2022-11-09T13:13:48.113Z,51.19
2022-11-09T13:19:09.911Z,52.09
2022-11-09T13:24:56.151Z,52.81
2022-11-09T13:30:43.060Z,51.90
2022-11-09T13:36:22.324Z,51.93
2022-11-09T13:41:44.849Z,51.85
2022-11-09T13:47:22.924Z,51.62
2022-11-09T13:52:50.749Z,51.57
2022-11-09T13:58:23.411Z,51.35
2022-11-09T14:03:51.745Z,52.16
2022-11-09T14:09:19.901Z,51.79
2022-11-09T14:14:59.599Z,52.29
2022-11-09T14:20:32.275Z,51.72
2022-11-09T14:25:53.717Z,51.25
2022-11-09T14:31:24.598Z,51.77
2022-11-09T14:36:47.452Z,50.52
2022-11-09T14:42:13.701Z,51.11
2022-11-09T14:47:38.873Z,50.81
2022-11-09T14:53:02.694Z,50.25
2022-11-09T14:58:25.140Z,50.76
2022-11-09T15:03:47.813Z,51.69
2022-11-09T15:09:15.856Z,52.34
2022-11-09T15:14:37.380Z,53.11
2022-11-09T15:20:00.164Z,52.96
2022-11-09T15:25:27.475Z,52.98
2022-11-09T15:31:05.807Z,52.95
2022-11-09T15:36:31.535Z,53.11
2022-11-09T15:41:54.129Z,52.85
2022-11-09T15:47:22.945Z,53.20
2022-11-09T15:52:44.495Z,53.03
2022-11-09T15:58:07.555Z,53.78
2022-11-09T16:03:28.945Z,53.66
2022-11-09T16:08:50.988Z,53.93
2022-11-09T16:14:14.899Z,53.44
2022-11-09T16:19:36.679Z,54.03
2022-11-09T16:24:58.202Z,54.18
2022-11-09T16:30:21.741Z,54.90
2022-11-09T16:35:43.303Z,56.00
2022-11-09T16:41:05.441Z,56.28
2022-11-09T16:46:30.271Z,56.11
2022-11-09T16:51:51.927Z,57.34
2022-11-09T16:57:13.279Z,57.50
2022-11-09T17:02:36.684Z,57.52
2022-11-09T17:07:59.151Z,58.37
2022-11-09T17:13:20.672Z,58.58
2022-11-09T17:18:43.759Z,58.19
2022-11-09T17:24:06.383Z,58.63
2022-11-09T17:29:28.003Z,58.65
2022-11-09T17:34:50.945Z,58.78
2022-11-09T17:40:12.641Z,60.40
2022-11-09T17:45:36.468Z,60.96
2022-11-09T17:51:00.308Z,61.79
2022-11-09T17:56:21.757Z,61.00
2022-11-09T18:01:43.862Z,61.67
2022-11-09T18:07:06.633Z,61.55
2022-11-09T18:12:27.847Z,61.20
2022-11-09T18:17:49.597Z,61.76
2022-11-09T18:23:12.593Z,62.61
2022-11-09T18:28:34.328Z,62.59
2022-11-09T18:33:55.797Z,62.74
2022-11-09T18:39:18.569Z,63.54
2022-11-09T18:44:39.976Z,63.90
2022-11-09T18:50:01.094Z,64.28
2022-11-09T18:55:23.870Z,64.07
2022-11-09T19:00:45.654Z,65.04
2022-11-09T19:06:08.442Z,64.43
2022-11-09T19:11:31.227Z,65.14
2022-11-09T19:16:52.446Z,65.58
2022-11-09T19:22:18.197Z,65.93
2022-11-09T19:27:41.357Z,66.49
2022-11-09T19:33:03.396Z,66.67
2022-11-09T19:38:24.533Z,67.04
2022-11-09T19:43:49.902Z,66.81
2022-11-09T19:49:11.504Z,67.87
2022-11-09T19:54:32.649Z,67.96
2022-11-09T19:59:55.607Z,67.56
2022-11-09T20:05:16.840Z,68.01
2022-11-09T20:10:38.386Z,68.35
2022-11-09T20:16:04.956Z,68.09
2022-11-09T20:21:26.169Z,67.42
2022-11-09T20:26:47.706Z,67.40
2022-11-09T20:32:15.660Z,67.21
2022-11-09T20:37:39.712Z,68.44
2022-11-09T20:43:00.971Z,67.85
2022-11-09T20:48:52.219Z,67.88
2022-11-09T20:54:07.772Z,67.45
2022-11-09T20:59:29.445Z,67.28
2022-11-09T21:04:52.090Z,67.85
2022-11-09T21:10:13.624Z,68.22
2022-11-09T21:15:35.087Z,68.24
2022-11-09T21:20:57.995Z,68.18
2022-11-09T21:26:36.994Z,67.43
2022-11-09T21:31:58.477Z,69.21
2022-11-09T21:37:21.141Z,69.66
2022-11-09T21:42:42.405Z,69.00
2022-11-09T21:48:03.703Z,68.90
2022-11-09T21:53:27.715Z,68.85
2022-11-09T21:58:50.034Z,70.52
2022-11-09T22:04:11.514Z,69.50
2022-11-09T22:09:57.823Z,69.50
2022-11-09T22:15:34.155Z,69.74
2022-11-09T22:20:57.250Z,69.73
2022-11-09T22:26:19.713Z,70.17
2022-11-09T22:31:41.347Z,70.47
2022-11-09T22:37:02.547Z,69.73
2022-11-09T22:42:25.365Z,70.06
2022-11-09T22:47:46.825Z,69.70
2022-11-09T22:53:07.977Z,71.17
2022-11-09T22:58:30.984Z,71.42
2022-11-09T23:03:52.843Z,71.84
2022-11-09T23:09:14.161Z,70.94
2022-11-09T23:14:54.086Z,71.25
2022-11-09T23:20:15.847Z,71.78
2022-11-09T23:25:57.011Z,72.33
2022-11-09T23:31:24.111Z,72.39
2022-11-09T23:36:45.773Z,71.59
2022-11-09T23:42:07.013Z,72.76
2022-11-09T23:47:29.520Z,72.24
2022-11-09T23:52:50.616Z,73.05
2022-11-09T23:58:13.035Z,73.22
